Plumsteadville, Pennsylvania
Current Conditions -  °F | °C
As of 3:54 PM on Tuesday 25 Nov 2014 (Local Time) from KDYL Reporting Station
Clear Clear  
Wind Chill: 50°   Ceiling: Unl
Heat Index: 50°   Visibility: 10mi
Dew Point: 29°   Wind: 5mph
Humidity: 44%   Direction: 250°WSW
Pressure: 30.02"   Gusts: NA
Location:  40.39°N, 75.15°W
Report Text: KDYL 252054Z AUTO 25004KT 10SM CLR 10/M02 A3002 RMK AO2 SLP166 T01001017 53002
Loading
Personal Weather Stations






























Interactive Weather Map New forecast layout! Learn more

10-Day Weather Forecast

Advertisements
Track Severe Weather on mobile